Lacrosse, Washington
Current Conditions -  °F | °C
As of 3:53 AM on Friday 19 Dec 2014 (Local Time) from KPUW Reporting Station
Light Rain Light Rain  
Wind Chill: 31°   Ceiling: 4500
Heat Index: 39°   Visibility: 10mi
Dew Point: 36°   Wind: 15mph
Humidity: 89%   Direction: 100°E
Pressure: 29.9"   Gusts: NA
Location:  46.7281°N, 117.837°W
Report Text: KPUW 191153Z AUTO 10013KT 10SM -RA OVC045 04/02 A2990 RMK AO2 RAB19 SLP137 P0001 60002 70002 T00390022 10056 20039 56013
Loading
Personal Weather Stations






























Interactive Weather Map New forecast layout! Learn more

10-Day Weather Forecast

Advertisements
Track Severe Weather on mobile